Time;durP1;ratioP1;P1;durP2;ratioP2;P2;SDS_P1;SDS_P2;PMS_P1;PMS_P2;Temp;Humidity;BMP_temperature;BMP_pressure;BME280_temperature;BME280_humidity;BME280_pressure;Samples;Min_cycle;Max_cycle;Signal;HPM_P1;HPM_P2
2022/09/26 00:01:20;;;;;;;17.02;8.60;;;21.10;66.10;;;;;;5033459;28;20038;-73
2022/09/26 00:03:49;;;;;;;17.25;9.20;;;21.10;66.00;;;;;;5032282;28;20033;-73
2022/09/26 00:06:16;;;;;;;17.15;8.40;;;21.10;65.90;;;;;;5031383;28;20030;-73
2022/09/26 00:08:44;;;;;;;15.15;8.13;;;21.10;65.90;;;;;;5031887;28;20031;-73
2022/09/26 00:11:12;;;;;;;14.68;8.38;;;21.10;65.90;;;;;;5032059;28;20037;-73
2022/09/26 00:13:40;;;;;;;13.95;8.73;;;21.10;66.20;;;;;;5030998;28;20025;-73
2022/09/26 00:16:07;;;;;;;14.02;8.25;;;21.10;66.00;;;;;;5030038;28;20052;-72
2022/09/26 00:18:33;;;;;;;16.80;8.52;;;21.20;66.10;;;;;;5029874;28;20029;-73
2022/09/26 00:21:06;;;;;;;13.95;7.82;;;21.10;66.10;;;;;;5031943;28;20043;-72
2022/09/26 00:23:32;;;;;;;14.73;8.38;;;21.20;66.30;;;;;;5031442;28;20393;-72
2022/09/26 00:25:58;;;;;;;14.68;7.90;;;21.10;66.20;;;;;;5029957;28;20033;-73
2022/09/26 00:28:24;;;;;;;14.55;8.35;;;21.20;66.20;;;;;;5031923;28;20028;-73
2022/09/26 00:30:53;;;;;;;16.83;8.93;;;21.10;66.20;;;;;;5030525;28;20030;-74
2022/09/26 00:33:19;;;;;;;18.60;8.75;;;21.10;66.10;;;;;;5030208;28;20037;-73
2022/09/26 00:35:55;;;;;;;14.68;8.40;;;21.10;66.20;;;;;;5013630;28;20026;-73
2022/09/26 00:38:21;;;;;;;18.17;8.43;;;21.10;66.20;;;;;;5030148;28;20036;-73
2022/09/26 00:40:48;;;;;;;12.45;7.82;;;21.10;66.20;;;;;;5030240;28;20033;-73
2022/09/26 00:43:44;;;;;;;20.75;8.20;;;21.10;66.30;;;;;;5030299;28;20029;-73
2022/09/26 00:46:13;;;;;;;19.02;8.27;;;21.10;66.40;;;;;;5021250;28;20068;-73
2022/09/26 00:48:42;;;;;;;13.98;7.68;;;21.10;66.30;;;;;;5030227;28;20416;-73
2022/09/26 00:51:09;;;;;;;14.27;8.18;;;21.10;66.40;;;;;;5012775;28;20111;-73
2022/09/26 00:53:40;;;;;;;15.02;8.52;;;21.10;66.40;;;;;;5013446;28;20385;-73
2022/09/26 00:56:10;;;;;;;14.10;8.00;;;21.10;66.40;;;;;;5029804;28;20034;-75
2022/09/26 00:58:44;;;;;;;12.30;7.93;;;21.10;66.40;;;;;;5013757;28;20037;-74
2022/09/26 01:01:12;;;;;;;14.23;8.20;;;21.10;66.40;;;;;;5029795;28;20025;-73
2022/09/26 01:03:40;;;;;;;14.13;7.30;;;21.10;66.40;;;;;;5013563;28;20041;-73
2022/09/26 01:06:06;;;;;;;14.38;7.88;;;21.10;66.50;;;;;;5013004;28;20095;-74
2022/09/26 01:08:37;;;;;;;14.82;7.57;;;21.10;66.50;;;;;;5033050;28;20440;-73
2022/09/26 01:11:03;;;;;;;13.98;7.97;;;21.10;66.50;;;;;;5031688;28;20028;-74
2022/09/26 01:13:33;;;;;;;14.68;7.30;;;21.20;66.60;;;;;;5137642;22;20046;-74
2022/09/26 01:15:59;;;;;;;;;;;21.20;66.40;;;;;;5029434;28;20034;-74
2022/09/26 01:18:25;;;;;;;15.95;7.80;;;21.20;66.00;;;;;;5025161;28;20000;-73
2022/09/26 01:21:16;;;;;;;20.33;8.00;;;21.20;66.40;;;;;;5030666;28;20026;-74
2022/09/26 01:23:50;;;;;;;33.17;10.10;;;21.10;66.40;;;;;;5012151;28;20038;-73
2022/09/26 01:26:55;;;;;;;20.70;8.30;;;21.20;66.40;;;;;;5011177;28;20030;-73
2022/09/26 01:29:41;;;;;;;22.48;8.68;;;21.10;66.20;;;;;;5012727;28;20030;-74
2022/09/26 01:32:47;;;;;;;23.02;9.48;;;21.10;66.00;;;;;;5011229;28;20030;-73
2022/09/26 01:35:17;;;;;;;14.32;7.75;;;21.10;65.90;;;;;;5011114;28;20026;-74
2022/09/26 01:38:08;;;;;;;16.38;8.30;;;21.10;65.90;;;;;;5011379;28;20117;-74
2022/09/26 01:40:55;;;;;;;13.82;7.63;;;21.10;65.90;;;;;;5011497;28;20037;-74
2022/09/26 01:43:28;;;;;;;15.23;7.18;;;21.10;66.50;;;;;;5010775;28;20124;-74
2022/09/26 01:46:00;;;;;;;14.65;7.43;;;21.10;65.90;;;;;;5011114;28;20038;-74
2022/09/26 01:48:43;;;;;;;15.38;7.90;;;21.10;65.90;;;;;;4994800;28;20041;-74
2022/09/26 01:51:25;;;;;;;17.80;8.10;;;21.10;65.90;;;;;;4978782;28;20389;-74
2022/09/26 01:53:54;;;;;;;13.60;7.13;;;21.10;65.90;;;;;;5011062;28;20092;-74
2022/09/26 01:56:25;;;;;;;12.07;7.22;;;21.10;65.90;;;;;;4994520;28;20490;-74
2022/09/26 01:59:04;;;;;;;14.65;7.82;;;21.10;65.90;;;;;;4994839;28;20030;-74
2022/09/26 02:01:36;;;;;;;16.67;7.57;;;21.10;65.90;;;;;;4994278;28;20038;-74
2022/09/26 02:04:09;;;;;;;15.48;7.75;;;21.10;65.90;;;;;;5010908;28;20026;-74
2022/09/26 02:06:48;;;;;;;14.50;7.45;;;21.10;65.90;;;;;;5010542;28;20029;-74
2022/09/26 02:09:20;;;;;;;17.67;7.90;;;21.10;65.80;;;;;;5010873;28;20022;-74
2022/09/26 02:11:49;;;;;;;15.25;7.68;;;21.10;65.80;;;;;;5010726;28;20065;-74
2022/09/26 02:14:20;;;;;;;;;;;21.10;65.80;;;;;;5011489;28;20432;-73
2022/09/26 02:16:54;;;;;;;13.80;7.28;;;21.10;65.70;;;;;;5010498;28;19968;-73
2022/09/26 02:19:38;;;;;;;12.57;7.22;;;21.10;65.70;;;;;;5011854;28;20105;-73
2022/09/26 02:22:04;;;;;;;20.27;8.07;;;21.10;65.80;;;;;;5010675;28;20397;-74
2022/09/26 02:24:30;;;;;;;16.50;7.65;;;21.10;67.00;;;;;;5010529;28;20057;-74
2022/09/26 02:26:56;;;;;;;13.75;7.60;;;21.10;66.40;;;;;;4994077;28;20033;-73
2022/09/26 02:29:22;;;;;;;15.80;7.03;;;21.10;66.70;;;;;;4994249;28;20025;-73
2022/09/26 02:31:55;;;;;;;23.67;7.15;;;21.10;66.50;;;;;;5010569;28;20025;-74
2022/09/26 02:34:23;;;;;;;13.85;7.18;;;21.10;66.60;;;;;;5010568;28;20025;-74
2022/09/26 02:36:50;;;;;;;13.35;7.47;;;21.10;66.70;;;;;;4994123;28;20498;-74
2022/09/26 02:39:16;;;;;;;13.38;7.35;;;21.10;66.70;;;;;;5010504;28;20104;-73
2022/09/26 02:42:20;;;;;;;15.40;7.47;;;21.10;66.60;;;;;;5006178;28;20050;-73
2022/09/26 02:45:07;;;;;;;13.77;7.60;;;21.10;66.80;;;;;;5010201;28;20041;-74
2022/09/26 02:47:48;;;;;;;15.18;7.55;;;21.10;66.70;;;;;;5010432;28;20052;-74
2022/09/26 02:50:36;;;;;;;13.93;7.05;;;21.10;67.20;;;;;;5010398;28;20441;-73
2022/09/26 02:53:24;;;;;;;19.37;7.90;;;21.10;66.70;;;;;;5010469;28;20046;-74
2022/09/26 02:56:25;;;;;;;13.82;6.97;;;21.10;66.40;;;;;;5010151;28;20261;-74
2022/09/26 02:59:15;;;;;;;11.77;6.97;;;21.10;66.70;;;;;;4976957;28;20034;-74
2022/09/26 03:01:55;;;;;;;11.38;6.28;;;21.10;66.70;;;;;;5010218;28;20378;-74
2022/09/26 03:04:34;;;;;;;13.45;6.90;;;21.10;66.70;;;;;;5010343;28;20095;-74
2022/09/26 03:07:05;;;;;;;16.25;6.88;;;21.10;66.60;;;;;;5010076;28;20041;-74
2022/09/26 03:09:33;;;;;;;13.60;7.75;;;21.10;66.60;;;;;;5010411;28;20030;-74
2022/09/26 03:12:03;;;;;;;16.52;6.78;;;21.10;66.80;;;;;;5010411;28;20317;-73
2022/09/26 03:14:32;;;;;;;16.30;6.60;;;21.10;66.70;;;;;;5012907;28;20022;-73
2022/09/26 03:16:58;;;;;;;14.25;6.97;;;21.10;66.70;;;;;;4997528;28;20115;-73
2022/09/26 03:19:35;;;;;;;14.18;6.45;;;21.10;66.70;;;;;;5013826;28;20026;-73
2022/09/26 03:22:01;;;;;;;14.82;7.22;;;21.10;66.70;;;;;;4997921;28;20122;-73
2022/09/26 03:24:28;;;;;;;14.70;6.93;;;21.10;66.60;;;;;;5013704;28;20551;-73
2022/09/26 03:26:58;;;;;;;11.20;6.70;;;21.10;66.60;;;;;;4997157;28;20037;-74
2022/09/26 03:29:24;;;;;;;15.40;7.20;;;21.10;66.60;;;;;;5013786;28;20026;-73
2022/09/26 03:31:50;;;;;;;14.63;7.28;;;21.10;66.70;;;;;;5013682;28;20105;-74
2022/09/26 03:34:18;;;;;;;17.75;7.50;;;21.10;66.70;;;;;;4997309;28;20041;-73
2022/09/26 03:36:44;;;;;;;14.73;6.72;;;21.10;67.00;;;;;;5013464;28;20030;-73
2022/09/26 03:39:11;;;;;;;12.98;6.97;;;21.10;66.70;;;;;;5013473;28;20041;-74
2022/09/26 03:41:47;;;;;;;16.60;6.82;;;21.10;66.80;;;;;;5013498;28;20490;-74
2022/09/26 03:44:23;;;;;;;15.35;6.53;;;21.10;66.90;;;;;;5013497;28;20081;-74
2022/09/26 03:47:18;;;;;;;11.10;5.90;;;21.10;66.90;;;;;;5005413;28;20099;-74
2022/09/26 03:49:47;;;;;;;14.93;6.18;;;21.10;67.00;;;;;;5013232;28;20450;-73
2022/09/26 03:52:13;;;;;;;12.43;6.88;;;21.10;67.00;;;;;;5013241;28;20061;-73
2022/09/26 03:54:41;;;;;;;13.10;6.53;;;21.10;66.90;;;;;;5012946;28;20470;-73
2022/09/26 03:57:09;;;;;;;14.15;6.43;;;21.10;67.00;;;;;;5013094;28;20148;-73
2022/09/26 03:59:39;;;;;;;11.10;6.53;;;21.10;67.80;;;;;;5012978;28;20037;-73
2022/09/26 04:02:06;;;;;;;12.32;6.72;;;21.10;67.80;;;;;;5013076;28;20034;-74
2022/09/26 04:04:37;;;;;;;17.15;7.10;;;21.10;67.40;;;;;;5012952;28;20030;-74
2022/09/26 04:07:03;;;;;;;18.80;6.70;;;21.10;67.70;;;;;;5012733;28;20041;-74
2022/09/26 04:09:29;;;;;;;12.00;6.32;;;21.10;67.60;;;;;;5014263;28;20030;-74
2022/09/26 04:11:56;;;;;;;13.02;6.40;;;21.10;67.60;;;;;;5012753;28;20040;-73
2022/09/26 04:14:22;;;;;;;11.60;6.18;;;21.10;67.60;;;;;;5012855;28;20026;-74
2022/09/26 04:16:54;;;;;;;12.45;6.47;;;21.10;67.40;;;;;;5012602;28;20029;-74
2022/09/26 04:19:27;;;;;;;13.55;6.65;;;21.10;67.30;;;;;;5012897;28;20045;-74
2022/09/26 04:21:53;;;;;;;15.93;6.47;;;21.10;67.30;;;;;;5012716;28;20037;-74
2022/09/26 04:24:20;;;;;;;14.23;6.93;;;21.10;67.40;;;;;;5012542;28;20072;-74
2022/09/26 04:26:46;;;;;;;12.93;6.55;;;21.10;67.20;;;;;;5012290;28;20034;-74
2022/09/26 04:29:12;;;;;;;15.05;6.35;;;21.10;67.40;;;;;;5012503;28;20093;-74
2022/09/26 04:31:54;;;;;;;12.45;6.25;;;21.10;67.50;;;;;;5012725;28;20521;-74
2022/09/26 04:34:27;;;;;;;12.90;5.88;;;21.10;67.50;;;;;;5013773;28;20073;-74
2022/09/26 04:36:55;;;;;;;13.48;7.00;;;21.10;68.10;;;;;;5012271;28;20038;-74
2022/09/26 04:39:22;;;;;;;14.98;6.53;;;21.10;67.40;;;;;;5012451;28;20425;-74
2022/09/26 04:41:48;;;;;;;14.48;5.90;;;21.10;68.30;;;;;;5012220;28;20033;-74
2022/09/26 04:44:14;;;;;;;12.43;5.70;;;21.10;67.90;;;;;;5012367;28;20037;-74
2022/09/26 04:46:40;;;;;;;12.07;5.88;;;21.10;67.90;;;;;;4995755;28;20046;-74
2022/09/26 04:49:07;;;;;;;11.85;5.90;;;21.10;68.00;;;;;;5012318;28;20030;-74
2022/09/26 04:51:34;;;;;;;11.93;6.35;;;21.10;67.80;;;;;;5012185;28;20490;-74
2022/09/26 04:54:00;;;;;;;18.48;6.18;;;21.10;67.80;;;;;;5012174;28;20060;-74
2022/09/26 04:56:29;;;;;;;13.73;5.85;;;21.10;68.10;;;;;;5011705;28;20029;-74
2022/09/26 04:58:56;;;;;;;10.82;6.10;;;21.10;67.80;;;;;;5012347;28;20437;-74
2022/09/26 05:01:25;;;;;;;10.43;5.65;;;21.10;68.00;;;;;;4995884;28;20105;-74
2022/09/26 05:04:11;;;;;;;12.32;6.15;;;21.10;68.10;;;;;;4985870;28;20429;-74
2022/09/26 05:06:38;;;;;;;13.60;6.47;;;21.10;67.90;;;;;;5010389;28;20030;-75
2022/09/26 05:09:06;;;;;;;12.23;6.00;;;21.10;67.50;;;;;;5011029;28;20033;-75
2022/09/26 05:11:54;;;;;;;13.18;6.45;;;21.10;67.90;;;;;;5012363;28;20516;-74
2022/09/26 05:14:20;;;;;;;11.73;5.50;;;21.10;67.60;;;;;;4995178;28;20034;-74
2022/09/26 05:16:47;;;;;;;12.68;6.18;;;21.10;67.50;;;;;;5011534;28;20033;-74
2022/09/26 05:19:15;;;;;;;11.30;5.30;;;21.10;67.50;;;;;;5011572;28;20037;-74
2022/09/26 05:22:06;;;;;;;10.10;5.22;;;21.10;67.40;;;;;;5011546;28;20038;-74
2022/09/26 05:27:20;;;;;;;11.82;5.78;;;21.10;67.40;;;;;;5011611;28;20040;-73
2022/09/26 05:29:46;;;;;;;11.32;6.18;;;21.20;67.50;;;;;;4994894;28;20560;-73
2022/09/26 05:32:15;;;;;;;13.13;5.82;;;21.10;67.50;;;;;;5011367;28;20022;-73
2022/09/26 05:34:41;;;;;;;;;;;21.20;67.50;;;;;;5011385;28;20026;-73
2022/09/26 05:37:13;;;;;;;12.02;5.50;;;21.10;67.90;;;;;;5010908;28;19941;-73
2022/09/26 05:42:26;;;;;;;11.70;5.95;;;21.10;67.50;;;;;;5011388;28;20045;-73
2022/09/26 05:44:52;;;;;;;11.73;5.43;;;21.10;67.40;;;;;;5010835;28;20033;-73
2022/09/26 05:47:18;;;;;;;13.73;6.00;;;21.10;67.30;;;;;;5011201;28;20066;-73
2022/09/26 05:49:44;;;;;;;12.45;5.80;;;21.10;67.30;;;;;;5012693;28;20068;-73
2022/09/26 05:52:13;;;;;;;11.43;5.17;;;21.10;67.30;;;;;;5011191;28;20435;-73
2022/09/26 05:54:39;;;;;;;11.23;6.13;;;21.10;67.30;;;;;;5011092;28;20273;-73
2022/09/26 05:57:25;;;;;;;12.60;5.88;;;21.10;67.20;;;;;;5011255;28;20037;-73
2022/09/26 05:59:53;;;;;;;10.13;5.40;;;21.10;67.10;;;;;;4995178;28;20468;-73
2022/09/26 06:02:24;;;;;;;12.63;6.25;;;21.10;67.70;;;;;;5012280;28;20030;-73
2022/09/26 06:05:24;;;;;;;10.80;5.82;;;21.10;67.00;;;;;;5012820;28;20088;-73
2022/09/26 06:07:58;;;;;;;11.40;5.70;;;21.10;67.30;;;;;;5011436;28;20441;-73
2022/09/26 06:10:37;;;;;;;11.27;5.93;;;21.10;67.10;;;;;;5011037;28;20029;-73
2022/09/26 06:13:04;;;;;;;10.32;5.60;;;21.10;67.10;;;;;;5011378;28;20065;-73
2022/09/26 06:15:36;;;;;;;12.98;6.03;;;21.10;67.10;;;;;;5010603;28;20030;-74
2022/09/26 06:18:03;;;;;;;11.18;5.75;;;21.10;67.10;;;;;;4994674;28;20060;-73
2022/09/26 06:20:33;;;;;;;10.15;5.50;;;21.10;67.10;;;;;;5011000;28;20401;-73
2022/09/26 06:22:59;;;;;;;;;;;21.10;67.10;;;;;;5011279;28;20117;-73
2022/09/26 06:25:26;;;;;;;9.02;5.35;;;21.10;67.20;;;;;;5010549;28;19964;-74
2022/09/26 06:27:58;;;;;;;9.07;5.63;;;21.20;67.30;;;;;;5010718;28;20033;-74
2022/09/26 06:30:25;;;;;;;10.25;5.55;;;21.10;67.10;;;;;;5010609;28;20060;-73
2022/09/26 06:32:58;;;;;;;10.90;5.53;;;21.20;67.10;;;;;;5010514;28;20026;-73
2022/09/26 06:36:05;;;;;;;11.95;6.30;;;21.20;67.00;;;;;;4999528;28;20125;-73
2022/09/26 06:38:36;;;;;;;10.93;5.50;;;21.10;67.30;;;;;;5010676;28;20080;-73
2022/09/26 06:41:03;;;;;;;10.07;5.05;;;21.10;67.10;;;;;;4994113;28;20540;-73
2022/09/26 06:43:30;;;;;;;13.43;5.55;;;21.10;67.00;;;;;;5010514;28;20029;-74
2022/09/26 06:46:08;;;;;;;14.35;5.45;;;21.10;67.20;;;;;;5011016;28;20026;-73
2022/09/26 06:48:47;;;;;;;11.60;5.72;;;21.10;67.00;;;;;;4996065;28;20033;-74
2022/09/26 06:51:36;;;;;;;15.35;5.00;;;21.10;67.10;;;;;;5009865;28;20068;-74
2022/09/26 06:54:03;;;;;;;9.73;5.55;;;21.20;67.10;;;;;;4998056;28;20022;-74
2022/09/26 06:56:29;;;;;;;11.40;5.45;;;21.20;67.30;;;;;;5013971;28;20049;-73
2022/09/26 06:58:55;;;;;;;8.82;5.30;;;21.10;67.20;;;;;;5014097;28;20072;-73
2022/09/26 07:01:29;;;;;;;15.10;5.60;;;21.10;67.00;;;;;;5014126;28;20030;-74
2022/09/26 07:04:28;;;;;;;13.18;5.90;;;21.10;67.40;;;;;;4992415;28;20131;-74
2022/09/26 07:07:04;;;;;;;12.77;5.32;;;21.10;67.80;;;;;;5013817;28;20520;-74
2022/09/26 07:09:31;;;;;;;14.82;5.90;;;21.10;67.50;;;;;;4997926;28;20030;-74
2022/09/26 07:12:05;;;;;;;14.10;5.45;;;21.20;67.50;;;;;;5012950;22;20379;-75
2022/09/26 07:14:31;;;;;;;13.07;5.60;;;21.10;67.50;;;;;;5015632;28;20029;-75
2022/09/26 07:17:03;;;;;;;9.05;5.35;;;21.10;67.80;;;;;;5033096;28;20386;-75
2022/09/26 07:19:49;;;;;;;10.70;5.47;;;21.20;68.00;;;;;;5014027;28;20497;-74
2022/09/26 07:22:33;;;;;;;11.70;5.57;;;21.20;67.70;;;;;;5013573;28;20501;-75
2022/09/26 07:24:59;;;;;;;11.93;5.68;;;21.20;67.70;;;;;;5013506;28;20131;-74
2022/09/26 07:27:25;;;;;;;11.85;5.30;;;21.20;67.60;;;;;;4997389;28;20092;-75
2022/09/26 07:29:51;;;;;;;10.82;5.60;;;21.20;67.70;;;;;;5013769;28;20049;-74
2022/09/26 07:32:21;;;;;;;13.98;5.70;;;21.20;67.50;;;;;;5013787;28;20030;-74
2022/09/26 07:35:10;;;;;;;9.73;5.50;;;21.20;67.60;;;;;;5008850;28;20060;-74
2022/09/26 07:37:36;;;;;;;14.25;5.40;;;21.20;68.00;;;;;;5030046;28;20030;-74
2022/09/26 07:40:03;;;;;;;10.82;5.35;;;21.20;68.30;;;;;;5013448;28;20383;-74
2022/09/26 07:42:31;;;;;;;12.63;5.47;;;21.30;68.50;;;;;;5029673;28;20026;-74
2022/09/26 07:44:57;;;;;;;18.92;5.22;;;21.30;68.60;;;;;;5013174;28;20116;-75
2022/09/26 07:50:27;;;;;;;15.27;5.60;;;21.40;68.70;;;;;;5014761;28;20480;-75
2022/09/26 07:53:01;;;;;;;14.18;5.30;;;21.40;68.80;;;;;;5013184;28;20032;-75
2022/09/26 07:55:27;;;;;;;12.85;5.78;;;21.30;69.00;;;;;;5014187;28;20018;-75
2022/09/26 07:58:11;;;;;;;13.20;5.57;;;21.40;68.90;;;;;;5014278;28;20052;-75
2022/09/26 08:00:43;;;;;;;10.85;5.50;;;21.40;68.90;;;;;;5012742;28;20614;-75
2022/09/26 08:03:19;;;;;;;19.77;5.93;;;21.40;69.00;;;;;;5009183;28;20030;-75
2022/09/26 08:05:46;;;;;;;13.20;5.70;;;21.40;69.20;;;;;;5029190;28;20585;-74
2022/09/26 08:08:13;;;;;;;14.50;6.18;;;21.40;69.20;;;;;;4996602;28;20030;-75
2022/09/26 08:11:00;;;;;;;12.05;5.15;;;21.40;69.20;;;;;;5002786;28;20037;-75
2022/09/26 08:13:32;;;;;;;9.00;5.25;;;21.40;69.10;;;;;;5013946;28;20116;-75
2022/09/26 08:16:30;;;;;;;19.05;6.05;;;21.40;69.10;;;;;;5012467;28;20080;-75
2022/09/26 08:19:00;;;;;;;13.02;5.60;;;21.40;69.10;;;;;;5029402;28;20041;-75
2022/09/26 08:21:27;;;;;;;15.73;5.78;;;21.40;69.10;;;;;;5001074;28;20038;-75
2022/09/26 08:23:56;;;;;;;16.55;5.93;;;21.40;68.90;;;;;;5027110;28;20037;-74
2022/09/26 08:26:30;;;;;;;18.90;5.93;;;21.40;68.90;;;;;;5027874;28;20083;-77
2022/09/26 08:29:22;;;;;;;22.15;6.45;;;21.50;68.90;;;;;;5012605;28;20034;-74
2022/09/26 08:31:52;;;;;;;21.95;6.05;;;21.50;68.60;;;;;;5012509;28;20034;-74
2022/09/26 08:34:20;;;;;;;22.48;6.63;;;21.50;69.20;;;;;;5013700;28;20029;-75
2022/09/26 08:36:54;;;;;;;19.58;5.97;;;21.50;68.80;;;;;;5012231;28;20490;-74
2022/09/26 08:39:37;;;;;;;21.48;6.95;;;21.60;68.60;;;;;;5026648;28;20508;-75
2022/09/26 08:43:05;;;;;;;23.90;6.40;;;21.70;69.20;;;;;;5011390;28;20440;-76
2022/09/26 08:49:47;;;;;;;30.88;8.20;;;21.80;69.90;;;;;;5001894;28;20038;-75
2022/09/26 08:52:46;;;;;;;21.63;8.88;;;21.90;71.60;;;;;;4950259;28;20046;-75
2022/09/26 08:55:18;;;;;;;21.45;8.65;;;21.90;70.80;;;;;;5009304;28;20041;-78
2022/09/26 08:57:53;;;;;;;20.75;8.23;;;21.80;70.30;;;;;;5012138;28;20034;-78
2022/09/26 09:00:29;;;;;;;21.17;8.40;;;21.70;68.60;;;;;;5028228;28;20033;-77
2022/09/26 09:03:16;;;;;;;26.00;7.88;;;21.70;68.90;;;;;;5027847;28;20074;-77
2022/09/26 09:05:47;;;;;;;30.67;8.88;;;21.60;66.60;;;;;;5026929;28;20037;-75
2022/09/26 09:08:20;;;;;;;22.40;7.28;;;21.50;66.40;;;;;;5011666;28;20057;-76
2022/09/26 09:11:40;;;;;;;24.75;8.05;;;21.40;65.70;;;;;;5011521;28;20076;-76
2022/09/26 09:14:19;;;;;;;;;;;21.40;64.20;;;;;;5028215;28;20440;-76
2022/09/26 09:17:12;;;;;;;26.05;9.68;;;21.40;61.20;;;;;;5012240;28;19959;-76
2022/09/26 09:20:30;;;;;;;21.92;9.20;;;21.30;59.90;;;;;;5010633;28;20057;-76
2022/09/26 09:23:34;;;;;;;22.05;7.10;;;21.40;60.50;;;;;;4994479;28;20122;-76
2022/09/26 09:26:21;;;;;;;20.20;9.40;;;21.30;60.00;;;;;;5010830;28;20501;-76
2022/09/26 09:28:53;;;;;;;30.23;16.08;;;21.30;59.40;;;;;;4995166;28;20493;-76
2022/09/26 09:31:21;;;;;;;36.42;19.00;;;21.30;57.80;;;;;;5011461;28;20038;-76
2022/09/26 09:34:04;;;;;;;33.22;18.30;;;21.30;57.00;;;;;;5027699;28;20026;-76
2022/09/26 09:36:46;;;;;;;25.80;13.53;;;21.30;55.80;;;;;;5011130;28;20529;-75
2022/09/26 09:39:35;;;;;;;19.45;10.50;;;21.40;55.60;;;;;;5010995;28;20032;-76
2022/09/26 09:42:46;;;;;;;17.70;8.00;;;21.40;55.60;;;;;;5002163;28;20025;-76
2022/09/26 09:45:22;;;;;;;13.40;5.80;;;21.40;55.00;;;;;;5010731;28;20129;-75
2022/09/26 09:47:48;;;;;;;12.27;5.57;;;21.30;54.80;;;;;;5027444;28;20026;-76
2022/09/26 09:50:22;;;;;;;9.65;4.00;;;21.30;55.50;;;;;;5010757;28;20029;-75
2022/09/26 09:53:05;;;;;;;11.55;4.22;;;21.30;54.40;;;;;;5011103;28;20022;-76
2022/09/26 09:55:44;;;;;;;10.43;3.70;;;21.30;54.20;;;;;;5010788;28;20470;-76
2022/09/26 09:58:29;;;;;;;7.73;3.80;;;21.30;53.50;;;;;;5011040;28;20053;-76
2022/09/26 10:01:09;;;;;;;9.02;3.13;;;21.30;53.90;;;;;;4994534;28;20124;-76
2022/09/26 10:03:47;;;;;;;7.50;2.80;;;21.20;53.10;;;;;;5010987;28;20038;-76
2022/09/26 10:06:16;;;;;;;16.10;4.35;;;21.30;52.80;;;;;;5010358;28;20040;-76
2022/09/26 10:08:44;;;;;;;13.10;3.90;;;21.30;52.60;;;;;;5024911;28;20030;-75
2022/09/26 10:11:40;;;;;;;12.35;3.92;;;21.30;52.50;;;;;;4990101;28;20040;-76
2022/09/26 10:14:41;;;;;;;9.55;3.78;;;21.40;52.50;;;;;;5009808;28;20045;-76
2022/09/26 10:17:10;;;;;;;7.07;3.17;;;21.40;52.50;;;;;;5010590;28;20037;-76
2022/09/26 10:20:00;;;;;;;5.32;2.35;;;21.30;52.60;;;;;;4999434;28;20038;-75
2022/09/26 10:22:36;;;;;;;17.35;2.88;;;21.30;51.60;;;;;;5005533;28;20482;-77
2022/09/26 10:25:15;;;;;;;9.48;2.80;;;21.30;53.10;;;;;;5008458;28;20124;-71
2022/09/26 10:27:50;;;;;;;13.07;4.13;;;21.40;52.90;;;;;;5025105;28;20034;-73
2022/09/26 10:30:30;;;;;;;8.77;3.15;;;21.40;56.10;;;;;;5009442;28;20473;-74
2022/09/26 10:33:03;;;;;;;25.08;3.13;;;21.50;57.70;;;;;;5009654;28;20038;-74
2022/09/26 10:35:47;;;;;;;13.88;3.28;;;21.50;57.70;;;;;;5026579;28;20022;-68
2022/09/26 10:38:20;;;;;;;10.70;3.17;;;21.50;57.10;;;;;;5026611;28;20104;-74
2022/09/26 10:40:53;;;;;;;9.80;3.50;;;21.50;56.70;;;;;;5026148;28;20025;-73
2022/09/26 10:43:32;;;;;;;13.55;5.28;;;21.40;55.20;;;;;;5008563;28;20025;-73
2022/09/26 10:46:14;;;;;;;13.20;5.53;;;21.40;54.50;;;;;;5001219;28;20066;-73
2022/09/26 10:49:02;;;;;;;10.57;4.72;;;21.50;54.70;;;;;;5005238;28;20042;-74
2022/09/26 10:52:02;;;;;;;16.77;4.70;;;21.50;54.80;;;;;;5005607;28;20119;-74
2022/09/26 10:54:44;;;;;;;9.88;4.85;;;21.50;55.10;;;;;;5008399;28;20070;-74
2022/09/26 10:57:23;;;;;;;11.27;4.60;;;21.40;55.30;;;;;;4988885;28;20353;-75
2022/09/26 10:59:51;;;;;;;10.85;5.00;;;21.40;55.70;;;;;;5011962;28;20478;-76
2022/09/26 11:02:23;;;;;;;9.93;5.03;;;21.40;55.90;;;;;;5001659;28;20076;-73
2022/09/26 11:07:46;;;;;;;12.88;5.10;;;21.40;57.10;;;;;;5009551;28;20297;-73
2022/09/26 11:10:31;;;;;;;15.43;5.00;;;21.40;56.80;;;;;;5011155;28;20525;-73
2022/09/26 11:13:28;;;;;;;21.33;5.20;;;21.40;57.00;;;;;;5007875;28;20096;-74
2022/09/26 11:16:02;;;;;;;18.45;5.30;;;21.50;57.40;;;;;;5008824;28;20022;-75
2022/09/26 11:18:44;;;;;;;15.63;4.95;;;21.50;57.20;;;;;;5024363;28;20049;-74
2022/09/26 11:21:26;;;;;;;13.88;5.15;;;21.50;57.20;;;;;;5007739;28;20042;-74
2022/09/26 11:24:04;;;;;;;13.40;5.13;;;21.50;58.20;;;;;;5007716;28;20564;-74
2022/09/26 11:26:43;;;;;;;17.98;5.65;;;21.40;57.70;;;;;;5007845;28;20034;-74
2022/09/26 11:29:22;;;;;;;11.80;5.82;;;21.40;57.80;;;;;;5009446;28;20022;-75
2022/09/26 11:32:08;;;;;;;16.80;5.47;;;21.40;57.90;;;;;;4977776;28;20034;-74
2022/09/26 11:34:53;;;;;;;12.77;5.43;;;21.40;58.00;;;;;;5009093;28;20097;-75
2022/09/26 11:37:29;;;;;;;12.18;5.28;;;21.40;58.10;;;;;;5008667;28;20117;-74
2022/09/26 11:40:26;;;;;;;14.82;5.63;;;21.40;58.30;;;;;;5024415;28;20080;-76
2022/09/26 11:43:08;;;;;;;16.60;5.50;;;21.40;58.20;;;;;;5008664;28;20030;-74
2022/09/26 11:46:09;;;;;;;14.10;5.38;;;21.40;58.60;;;;;;5011174;28;20026;-74
2022/09/26 11:49:02;;;;;;;12.32;5.50;;;21.40;58.70;;;;;;5008275;28;20416;-75
2022/09/26 11:52:03;;;;;;;16.67;5.00;;;21.40;58.70;;;;;;4996161;28;20065;-74
2022/09/26 11:54:57;;;;;;;10.43;5.15;;;21.40;58.80;;;;;;5007410;28;20505;-74
2022/09/26 11:57:32;;;;;;;11.13;5.05;;;21.40;58.90;;;;;;5011154;28;20402;-75
2022/09/26 12:00:14;;;;;;;12.02;5.15;;;21.40;59.10;;;;;;5012633;28;20033;-75
2022/09/26 12:02:40;;;;;;;10.70;5.22;;;21.40;59.10;;;;;;5012537;28;20063;-74
2022/09/26 12:05:10;;;;;;;12.85;4.90;;;21.40;59.20;;;;;;5010113;28;20544;-74
2022/09/26 12:07:42;;;;;;;11.20;4.88;;;21.40;59.50;;;;;;5010981;28;20030;-75
2022/09/26 12:10:38;;;;;;;12.95;5.03;;;21.40;59.50;;;;;;5009057;28;20026;-75
2022/09/26 12:13:48;;;;;;;12.73;4.97;;;21.40;59.40;;;;;;5012132;28;20041;-74
2022/09/26 12:16:20;;;;;;;13.10;4.70;;;21.40;59.40;;;;;;5011916;28;20378;-75
2022/09/26 12:18:59;;;;;;;13.75;4.80;;;21.40;59.80;;;;;;5012378;28;20034;-75
2022/09/26 12:22:27;;;;;;;11.50;5.18;;;21.40;60.00;;;;;;5008640;28;20065;-73
2022/09/26 12:24:54;;;;;;;15.98;5.25;;;21.40;59.80;;;;;;5008070;28;20030;-73
2022/09/26 12:27:42;;;;;;;14.50;5.43;;;21.40;60.10;;;;;;5003982;28;20053;-75
2022/09/26 12:30:14;;;;;;;11.70;4.50;;;21.40;60.60;;;;;;5004411;28;20209;-73
2022/09/26 12:32:42;;;;;;;19.08;4.65;;;21.40;59.40;;;;;;5009923;28;20017;-73
2022/09/26 12:35:30;;;;;;;15.35;4.97;;;21.40;60.40;;;;;;5028280;28;20058;-73
2022/09/26 12:38:20;;;;;;;12.68;4.38;;;21.30;59.40;;;;;;5015257;28;20033;-73
2022/09/26 12:41:19;;;;;;;12.90;4.22;;;21.40;58.60;;;;;;5013502;28;20045;-73
2022/09/26 12:44:03;;;;;;;14.18;4.40;;;21.30;59.00;;;;;;5028733;28;20030;-73
2022/09/26 12:47:20;;;;;;;12.73;4.25;;;21.30;59.20;;;;;;5013201;28;20033;-73
2022/09/26 12:49:57;;;;;;;10.05;4.55;;;21.30;59.70;;;;;;4980337;28;20038;-73
2022/09/26 12:52:30;;;;;;;11.15;4.63;;;21.30;60.10;;;;;;5013161;28;20119;-73
2022/09/26 12:55:03;;;;;;;8.60;3.90;;;21.30;60.10;;;;;;5028378;28;20026;-73
2022/09/26 12:57:59;;;;;;;14.23;4.50;;;21.30;60.30;;;;;;5028364;28;20393;-73
2022/09/26 13:00:35;;;;;;;12.02;4.68;;;21.40;60.40;;;;;;5013150;28;20041;-74
2022/09/26 13:03:34;;;;;;;10.45;4.13;;;21.30;60.50;;;;;;5012883;28;20029;-73
2022/09/26 13:06:27;;;;;;;14.23;4.75;;;21.40;60.60;;;;;;5012777;28;20037;-73
2022/09/26 13:09:08;;;;;;;10.90;4.57;;;21.30;60.70;;;;;;5011821;28;20041;-73
2022/09/26 13:12:02;;;;;;;9.35;4.35;;;21.40;60.70;;;;;;5011913;28;20030;-73
2022/09/26 13:14:56;;;;;;;10.27;4.38;;;21.40;60.90;;;;;;5011873;28;20034;-73
2022/09/26 13:17:33;;;;;;;10.05;4.38;;;21.30;61.50;;;;;;5028115;28;20034;-73
2022/09/26 13:20:13;;;;;;;9.15;4.40;;;21.40;61.10;;;;;;5012729;28;20439;-74
2022/09/26 13:22:58;;;;;;;15.35;4.68;;;21.40;61.30;;;;;;5011398;28;20041;-74
2022/09/26 13:25:43;;;;;;;10.95;4.35;;;21.40;61.30;;;;;;5027753;28;20412;-73
2022/09/26 13:28:41;;;;;;;8.52;4.25;;;21.30;61.30;;;;;;5011498;28;20114;-73
2022/09/26 13:31:15;;;;;;;11.60;4.50;;;21.40;61.50;;;;;;5012684;28;20021;-73
2022/09/26 13:34:08;;;;;;;9.48;4.18;;;21.30;61.60;;;;;;5011446;28;20026;-73
2022/09/26 13:36:37;;;;;;;10.23;4.50;;;21.40;61.70;;;;;;5012323;28;20087;-73
2022/09/26 13:39:25;;;;;;;11.32;4.10;;;21.30;62.20;;;;;;5011155;28;20536;-74
2022/09/26 13:42:04;;;;;;;9.40;4.10;;;21.40;61.70;;;;;;5012227;28;20033;-74